createdAt,value
2023-01-07T00:04:12.508Z,10.80
2023-01-07T00:09:15.533Z,10.76
2023-01-07T00:14:17.055Z,10.88
2023-01-07T00:19:18.561Z,10.76
2023-01-07T00:24:20.090Z,11.01
2023-01-07T00:29:21.604Z,10.68
2023-01-07T00:34:23.072Z,10.67
2023-01-07T00:39:24.601Z,10.56
2023-01-07T00:44:26.058Z,10.36
2023-01-07T00:49:27.745Z,10.42
2023-01-07T00:54:29.365Z,10.62
2023-01-07T00:59:30.871Z,10.36
2023-01-07T01:04:32.396Z,10.64
2023-01-07T01:09:33.984Z,10.58
2023-01-07T01:14:35.528Z,10.36
2023-01-07T01:19:37.081Z,10.41
2023-01-07T01:24:38.610Z,10.50
2023-01-07T01:29:40.159Z,10.20
2023-01-07T01:34:42.378Z,10.07
2023-01-07T01:39:45.142Z,10.08
2023-01-07T01:44:56.036Z,9.97
2023-01-07T01:50:18.128Z,9.93
2023-01-07T01:55:23.998Z,10.07
2023-01-07T02:00:26.953Z,10.19
2023-01-07T02:05:33.151Z,10.19
2023-01-07T02:10:34.866Z,10.20
2023-01-07T02:15:55.753Z,10.21
2023-01-07T02:21:13.858Z,10.16
2023-01-07T02:26:40.289Z,10.31
2023-01-07T02:32:13.515Z,10.32
2023-01-07T02:37:44.525Z,10.33
2023-01-07T02:43:11.124Z,10.34
2023-01-07T02:48:15.609Z,10.30
2023-01-07T02:53:19.574Z,10.25
2023-01-07T02:58:29.767Z,10.24
2023-01-07T03:04:05.550Z,10.35
2023-01-07T03:09:12.795Z,10.24
2023-01-07T03:14:19.489Z,10.33
2023-01-07T03:19:31.993Z,10.45
2023-01-07T03:24:33.729Z,10.32
2023-01-07T03:29:35.468Z,10.52
2023-01-07T03:34:39.467Z,10.37
2023-01-07T03:39:43.218Z,10.21
2023-01-07T03:44:46.222Z,10.34
2023-01-07T03:49:48.667Z,10.43
2023-01-07T03:54:50.245Z,10.17
2023-01-07T03:59:52.197Z,10.01
2023-01-07T04:04:53.969Z,10.24
2023-01-07T04:09:56.502Z,10.11
2023-01-07T04:14:59.326Z,10.32
2023-01-07T04:20:01.534Z,10.41
2023-01-07T04:25:03.351Z,10.56
2023-01-07T04:30:06.682Z,10.36
2023-01-07T04:35:09.228Z,10.29
2023-01-07T04:40:11.192Z,10.31
2023-01-07T04:45:13.728Z,10.20
2023-01-07T04:50:16.183Z,10.11
2023-01-07T04:55:18.009Z,10.07
2023-01-07T05:00:21.488Z,10.09
2023-01-07T05:05:24.997Z,9.96
2023-01-07T05:10:27.483Z,9.97
2023-01-07T05:15:29.047Z,10.01
2023-01-07T05:20:31.046Z,10.19
2023-01-07T05:25:34.834Z,10.16
2023-01-07T05:30:36.515Z,10.34
2023-01-07T05:35:38.855Z,10.22
2023-01-07T05:40:42.695Z,10.21
2023-01-07T05:45:46.079Z,9.96
2023-01-07T05:50:47.753Z,9.98
2023-01-07T05:55:49.313Z,9.87
2023-01-07T06:00:51.008Z,9.97
2023-01-07T06:05:52.495Z,9.82
2023-01-07T06:10:54.654Z,9.75
2023-01-07T06:16:08.016Z,9.84
2023-01-07T06:21:09.630Z,9.73
2023-01-07T06:26:11.126Z,9.78
2023-01-07T06:31:12.769Z,9.78
2023-01-07T06:36:14.305Z,9.42
2023-01-07T06:41:15.757Z,9.50
2023-01-07T06:46:17.299Z,9.35
2023-01-07T06:51:18.848Z,9.19
2023-01-07T06:56:20.397Z,9.28
2023-01-07T07:01:22.078Z,9.10
2023-01-07T07:06:23.696Z,9.01
2023-01-07T07:11:25.199Z,9.21
2023-01-07T07:16:26.722Z,9.39
2023-01-07T07:21:28.274Z,9.67
2023-01-07T07:26:29.790Z,9.51
2023-01-07T07:31:31.395Z,9.70
2023-01-07T07:36:33.007Z,9.77
2023-01-07T07:41:34.455Z,9.82
2023-01-07T07:46:41.354Z,9.87
2023-01-07T07:51:43.599Z,9.98
2023-01-07T07:56:45.093Z,9.84
2023-01-07T08:01:46.751Z,9.83
2023-01-07T08:06:48.393Z,9.47
2023-01-07T08:11:49.923Z,9.55
2023-01-07T08:16:51.382Z,9.61
2023-01-07T08:21:52.814Z,9.56
2023-01-07T08:26:54.263Z,9.46
2023-01-07T08:31:55.718Z,9.28
2023-01-07T08:36:57.226Z,9.23
2023-01-07T08:41:58.781Z,9.08
2023-01-07T08:47:00.348Z,9.17
2023-01-07T08:52:01.863Z,9.38
2023-01-07T08:57:03.440Z,9.44
2023-01-07T09:02:05.099Z,9.57
2023-01-07T09:07:06.812Z,9.96
2023-01-07T09:12:10.830Z,9.93
2023-01-07T09:17:12.560Z,10.11
2023-01-07T09:22:14.197Z,10.01
2023-01-07T09:27:15.722Z,9.79
2023-01-07T09:32:17.195Z,10.04
2023-01-07T09:37:18.689Z,10.15
2023-01-07T09:42:26.010Z,10.48
2023-01-07T09:47:29.241Z,10.47
2023-01-07T09:52:38.252Z,10.44
2023-01-07T09:57:39.841Z,10.31
2023-01-07T10:02:54.400Z,10.43
2023-01-07T10:08:30.312Z,10.40
2023-01-07T10:13:43.891Z,10.28
2023-01-07T10:18:56.852Z,10.37
2023-01-07T10:24:23.596Z,10.66
2023-01-07T10:29:48.533Z,10.53
2023-01-07T10:34:52.807Z,10.53
2023-01-07T10:40:16.578Z,10.52
2023-01-07T10:45:25.168Z,10.32
2023-01-07T10:50:52.624Z,10.32
2023-01-07T10:55:59.770Z,10.61
2023-01-07T11:01:01.437Z,10.30
2023-01-07T11:06:06.977Z,10.56
2023-01-07T11:11:18.340Z,10.54
2023-01-07T11:16:25.209Z,10.56
2023-01-07T11:21:43.290Z,10.66
2023-01-07T11:26:46.531Z,10.91
2023-01-07T11:31:55.485Z,10.67
2023-01-07T11:36:56.986Z,11.04
2023-01-07T11:42:01.125Z,11.08
2023-01-07T11:47:03.209Z,11.38
2023-01-07T11:52:04.766Z,12.34
2023-01-07T11:57:20.467Z,13.67
2023-01-07T12:02:27.167Z,14.87
2023-01-07T12:07:28.800Z,15.42
2023-01-07T12:12:30.310Z,15.51
2023-01-07T12:17:34.405Z,16.09
2023-01-07T12:23:08.808Z,16.88
2023-01-07T12:28:13.365Z,17.23
2023-01-07T12:33:17.550Z,17.44
2023-01-07T12:38:25.828Z,17.06
2023-01-07T12:43:47.144Z,16.61
2023-01-07T12:48:54.485Z,16.11
2023-01-07T12:54:05.067Z,15.53
2023-01-07T12:59:46.120Z,15.31
2023-01-07T13:05:10.210Z,15.12
2023-01-07T13:10:20.814Z,14.98
2023-01-07T13:15:22.410Z,14.70
2023-01-07T13:20:33.005Z,14.57
2023-01-07T13:26:04.487Z,14.45
2023-01-07T13:31:21.219Z,14.49
2023-01-07T13:36:42.911Z,14.19
2023-01-07T13:42:05.993Z,14.25
2023-01-07T13:47:12.077Z,14.41
2023-01-07T13:52:22.770Z,14.40
2023-01-07T13:57:24.233Z,14.50
2023-01-07T14:02:49.568Z,14.56
2023-01-07T14:07:54.862Z,14.59
2023-01-07T14:13:27.447Z,14.60
2023-01-07T14:18:55.236Z,14.58
2023-01-07T14:24:35.473Z,14.72
2023-01-07T14:29:59.474Z,14.59
2023-01-07T14:35:08.240Z,14.39
2023-01-07T14:40:28.116Z,14.47
2023-01-07T14:45:41.781Z,13.77
2023-01-07T14:50:49.250Z,13.83
2023-01-07T14:56:05.806Z,13.73
2023-01-07T15:01:35.737Z,13.63
2023-01-07T15:06:38.094Z,13.53
2023-01-07T15:11:41.906Z,13.14
2023-01-07T15:16:47.518Z,12.91
2023-01-07T15:21:48.952Z,12.82
2023-01-07T15:26:58.506Z,12.98
2023-01-07T15:32:08.783Z,12.90
2023-01-07T15:37:15.153Z,12.68
2023-01-07T15:42:21.527Z,12.70
2023-01-07T15:47:32.419Z,12.62
2023-01-07T15:52:33.937Z,12.63
2023-01-07T15:57:36.327Z,12.10
2023-01-07T16:02:42.753Z,12.03
2023-01-07T16:08:01.166Z,11.88
2023-01-07T16:13:16.483Z,11.74
2023-01-07T16:18:18.024Z,11.62
2023-01-07T16:23:23.172Z,11.53
2023-01-07T16:28:49.395Z,11.43
2023-01-07T16:33:54.169Z,11.51
2023-01-07T16:38:59.004Z,11.34
2023-01-07T16:44:01.030Z,11.64
2023-01-07T16:49:11.622Z,11.47
2023-01-07T16:54:25.152Z,11.33
2023-01-07T16:59:33.375Z,10.91
2023-01-07T17:04:34.984Z,10.97
2023-01-07T17:09:39.251Z,10.79
2023-01-07T17:14:40.620Z,10.77
2023-01-07T17:19:59.662Z,10.52
2023-01-07T17:25:23.564Z,10.71
2023-01-07T17:30:31.901Z,10.62
2023-01-07T17:35:33.422Z,10.78
2023-01-07T17:40:35.184Z,10.49
2023-01-07T17:45:36.867Z,10.35
2023-01-07T17:50:38.460Z,10.41
2023-01-07T17:55:39.962Z,10.20
2023-01-07T18:00:41.514Z,10.23
2023-01-07T18:05:43.054Z,10.47
2023-01-07T18:10:45.163Z,10.73
2023-01-07T18:15:46.660Z,10.75
2023-01-07T18:20:48.173Z,10.61
2023-01-07T18:25:50.745Z,10.40
2023-01-07T18:30:52.316Z,10.09
2023-01-07T18:35:55.391Z,9.61
2023-01-07T18:40:57.210Z,9.55
2023-01-07T18:45:58.817Z,9.42
2023-01-07T18:51:00.342Z,9.31
2023-01-07T18:56:01.910Z,9.24
2023-01-07T19:01:05.325Z,8.85
2023-01-07T19:06:08.928Z,8.98
2023-01-07T19:11:13.042Z,8.68
2023-01-07T19:16:20.111Z,8.54
2023-01-07T19:21:21.701Z,8.52
2023-01-07T19:26:23.218Z,8.52
2023-01-07T19:31:24.782Z,8.51
2023-01-07T19:36:26.485Z,8.45
2023-01-07T19:41:27.976Z,8.58
2023-01-07T19:46:29.506Z,8.52
2023-01-07T19:51:32.047Z,8.40
2023-01-07T19:56:33.769Z,8.29
2023-01-07T20:01:35.334Z,8.40
2023-01-07T20:06:37.977Z,8.27
2023-01-07T20:11:40.237Z,8.11
2023-01-07T20:16:41.973Z,7.73
2023-01-07T20:21:43.523Z,8.00
2023-01-07T20:26:45.018Z,8.07
2023-01-07T20:31:46.538Z,7.98
2023-01-07T20:36:48.412Z,7.83
2023-01-07T20:41:49.923Z,7.66
2023-01-07T20:46:51.790Z,7.54
2023-01-07T20:51:53.283Z,7.49
2023-01-07T20:56:55.216Z,7.48
2023-01-07T21:01:56.973Z,7.36
2023-01-07T21:06:58.559Z,7.26
2023-01-07T21:12:00.130Z,7.37
2023-01-07T21:17:01.581Z,7.47
2023-01-07T21:22:03.206Z,7.33
2023-01-07T21:27:04.674Z,7.35
2023-01-07T21:32:06.169Z,7.26
2023-01-07T21:37:07.840Z,7.14
2023-01-07T21:42:09.370Z,7.23
2023-01-07T21:47:10.894Z,7.03
2023-01-07T21:52:12.367Z,7.01
2023-01-07T21:57:13.855Z,6.89
2023-01-07T22:02:15.381Z,6.97
2023-01-07T22:07:18.510Z,6.82
2023-01-07T22:12:19.971Z,6.93
2023-01-07T22:17:21.452Z,6.94
2023-01-07T22:22:22.946Z,6.84
2023-01-07T22:27:24.429Z,6.95
2023-01-07T22:32:25.877Z,6.80
2023-01-07T22:37:27.444Z,6.70
2023-01-07T22:42:47.986Z,6.87
2023-01-07T22:47:50.924Z,7.04
2023-01-07T22:52:52.471Z,6.96
2023-01-07T22:57:54.210Z,7.02
2023-01-07T23:02:55.743Z,7.00
2023-01-07T23:07:58.116Z,7.02
2023-01-07T23:12:59.559Z,7.23
2023-01-07T23:18:01.102Z,7.34
2023-01-07T23:23:02.602Z,7.42
2023-01-07T23:28:04.244Z,7.58
2023-01-07T23:33:05.787Z,7.85
2023-01-07T23:38:07.288Z,8.04
2023-01-07T23:43:08.771Z,7.95
2023-01-07T23:48:10.206Z,7.94
2023-01-07T23:53:11.668Z,7.72
2023-01-07T23:58:13.161Z,7.49
